sensor_id;sensor_type;location;lat;lon;timestamp;pressure;altitude;pressure_sealevel;temperature;humidity
2178;BME280;1095;50.992;6.798;2023-01-08T00:01:18;99842.75;;;9.87;92.05
2178;BME280;1095;50.992;6.798;2023-01-08T00:03:45;99846.34;;;9.86;92.44
2178;BME280;1095;50.992;6.798;2023-01-08T00:06:18;99834.41;;;9.92;92.29
2178;BME280;1095;50.992;6.798;2023-01-08T00:08:45;99832.31;;;9.87;92.33
2178;BME280;1095;50.992;6.798;2023-01-08T00:11:12;99825.78;;;9.83;92.90
2178;BME280;1095;50.992;6.798;2023-01-08T00:13:39;99828.13;;;9.70;93.18
2178;BME280;1095;50.992;6.798;2023-01-08T00:16:09;99828.28;;;9.69;93.60
2178;BME280;1095;50.992;6.798;2023-01-08T00:18:36;99829.31;;;9.59;93.89
2178;BME280;1095;50.992;6.798;2023-01-08T00:21:02;99820.81;;;9.57;93.87
2178;BME280;1095;50.992;6.798;2023-01-08T00:23:29;99822.94;;;9.54;94.50
2178;BME280;1095;50.992;6.798;2023-01-08T00:25:56;99813.34;;;9.46;95.08
2178;BME280;1095;50.992;6.798;2023-01-08T00:28:23;99824.28;;;9.50;95.18
2178;BME280;1095;50.992;6.798;2023-01-08T00:30:53;99812.91;;;9.43;95.04
2178;BME280;1095;50.992;6.798;2023-01-08T00:33:24;99818.94;;;9.43;95.68
2178;BME280;1095;50.992;6.798;2023-01-08T00:35:54;99815.94;;;9.46;95.74
2178;BME280;1095;50.992;6.798;2023-01-08T00:38:24;99786.81;;;9.26;95.76
2178;BME280;1095;50.992;6.798;2023-01-08T00:40:59;99784.56;;;9.23;95.97
2178;BME280;1095;50.992;6.798;2023-01-08T00:43:33;99774.91;;;9.24;95.64
2178;BME280;1095;50.992;6.798;2023-01-08T00:46:04;99810.94;;;9.45;96.25
2178;BME280;1095;50.992;6.798;2023-01-08T00:48:45;99791.53;;;9.39;96.32
2178;BME280;1095;50.992;6.798;2023-01-08T00:51:17;99797.09;;;9.36;96.32
2178;BME280;1095;50.992;6.798;2023-01-08T00:53:46;99775.72;;;9.32;95.93
2178;BME280;1095;50.992;6.798;2023-01-08T00:56:16;99814.13;;;9.55;95.84
2178;BME280;1095;50.992;6.798;2023-01-08T00:58:43;99818.19;;;9.57;96.07
2178;BME280;1095;50.992;6.798;2023-01-08T01:01:14;99802.03;;;9.62;95.67
2178;BME280;1095;50.992;6.798;2023-01-08T01:03:47;99810.69;;;9.62;95.68
2178;BME280;1095;50.992;6.798;2023-01-08T01:06:17;99813.28;;;9.62;95.59
2178;BME280;1095;50.992;6.798;2023-01-08T01:08:44;99798.28;;;9.56;96.28
2178;BME280;1095;50.992;6.798;2023-01-08T01:11:27;99806.44;;;9.61;95.86
2178;BME280;1095;50.992;6.798;2023-01-08T01:14:07;99783.19;;;9.44;95.90
2178;BME280;1095;50.992;6.798;2023-01-08T01:16:55;99793.75;;;9.50;96.08
2178;BME280;1095;50.992;6.798;2023-01-08T01:19:35;99769.94;;;9.45;95.69
2178;BME280;1095;50.992;6.798;2023-01-08T01:22:02;99759.28;;;9.55;95.36
2178;BME280;1095;50.992;6.798;2023-01-08T01:24:51;99772.03;;;9.50;95.01
2178;BME280;1095;50.992;6.798;2023-01-08T01:27:28;99778.88;;;9.51;94.87
2178;BME280;1095;50.992;6.798;2023-01-08T01:30:08;99774.81;;;9.48;95.16
2178;BME280;1095;50.992;6.798;2023-01-08T01:32:59;99772.84;;;9.50;95.25
2178;BME280;1095;50.992;6.798;2023-01-08T01:35:40;99794.00;;;9.72;94.84
2178;BME280;1095;50.992;6.798;2023-01-08T01:38:27;99807.34;;;9.77;95.30
2178;BME280;1095;50.992;6.798;2023-01-08T01:41:04;99773.97;;;9.56;95.08
2178;BME280;1095;50.992;6.798;2023-01-08T01:43:56;99805.72;;;9.76;95.27
2178;BME280;1095;50.992;6.798;2023-01-08T01:46:45;99755.91;;;9.46;94.95
2178;BME280;1095;50.992;6.798;2023-01-08T01:49:27;99770.38;;;9.57;95.17
2178;BME280;1095;50.992;6.798;2023-01-08T01:52:07;99793.69;;;9.67;95.09
2178;BME280;1095;50.992;6.798;2023-01-08T01:54:51;99766.31;;;9.54;95.49
2178;BME280;1095;50.992;6.798;2023-01-08T01:58:00;99767.94;;;9.55;95.77
2178;BME280;1095;50.992;6.798;2023-01-08T02:00:38;99759.47;;;9.45;95.72
2178;BME280;1095;50.992;6.798;2023-01-08T02:06:01;99784.34;;;9.41;97.22
2178;BME280;1095;50.992;6.798;2023-01-08T02:08:38;99788.59;;;9.34;98.11
2178;BME280;1095;50.992;6.798;2023-01-08T02:11:10;99792.66;;;9.37;98.68
2178;BME280;1095;50.992;6.798;2023-01-08T02:13:49;99781.75;;;9.33;99.05
2178;BME280;1095;50.992;6.798;2023-01-08T02:16:22;99776.53;;;9.33;98.92
2178;BME280;1095;50.992;6.798;2023-01-08T02:18:55;99771.13;;;9.35;99.28
2178;BME280;1095;50.992;6.798;2023-01-08T02:21:30;99778.81;;;9.28;100.00
2178;BME280;1095;50.992;6.798;2023-01-08T02:24:02;99764.16;;;9.27;100.00
2178;BME280;1095;50.992;6.798;2023-01-08T02:26:34;99771.81;;;9.28;100.00
2178;BME280;1095;50.992;6.798;2023-01-08T02:29:05;99754.84;;;9.24;100.00
2178;BME280;1095;50.992;6.798;2023-01-08T02:31:34;99755.03;;;9.23;100.00
2178;BME280;1095;50.992;6.798;2023-01-08T02:34:02;99747.19;;;9.23;100.00
2178;BME280;1095;50.992;6.798;2023-01-08T02:36:37;99723.78;;;8.98;100.00
2178;BME280;1095;50.992;6.798;2023-01-08T02:39:31;99712.72;;;8.96;100.00
2178;BME280;1095;50.992;6.798;2023-01-08T02:42:13;99738.06;;;9.19;100.00
2178;BME280;1095;50.992;6.798;2023-01-08T02:44:53;99702.63;;;8.93;100.00
2178;BME280;1095;50.992;6.798;2023-01-08T02:47:26;99696.25;;;8.96;100.00
2178;BME280;1095;50.992;6.798;2023-01-08T02:50:06;99685.44;;;8.99;100.00
2178;BME280;1095;50.992;6.798;2023-01-08T02:52:39;99698.28;;;9.09;100.00
2178;BME280;1095;50.992;6.798;2023-01-08T02:55:11;99713.75;;;9.18;100.00
2178;BME280;1095;50.992;6.798;2023-01-08T02:57:41;99701.56;;;9.03;100.00
2178;BME280;1095;50.992;6.798;2023-01-08T03:00:12;99688.09;;;8.91;100.00
2178;BME280;1095;50.992;6.798;2023-01-08T03:02:40;99694.09;;;8.99;100.00
2178;BME280;1095;50.992;6.798;2023-01-08T03:05:24;99699.78;;;9.03;100.00
2178;BME280;1095;50.992;6.798;2023-01-08T03:07:52;99703.50;;;9.09;100.00
2178;BME280;1095;50.992;6.798;2023-01-08T03:10:21;99709.72;;;9.08;100.00
2178;BME280;1095;50.992;6.798;2023-01-08T03:12:54;99708.22;;;9.13;100.00
2178;BME280;1095;50.992;6.798;2023-01-08T03:15:25;99695.69;;;9.09;100.00
2178;BME280;1095;50.992;6.798;2023-01-08T03:17:59;99701.88;;;9.08;100.00
2178;BME280;1095;50.992;6.798;2023-01-08T03:20:28;99700.44;;;9.05;100.00
2178;BME280;1095;50.992;6.798;2023-01-08T03:22:59;99694.22;;;9.06;100.00
2178;BME280;1095;50.992;6.798;2023-01-08T03:25:29;99702.06;;;9.06;100.00
2178;BME280;1095;50.992;6.798;2023-01-08T03:28:00;99685.66;;;8.97;100.00
2178;BME280;1095;50.992;6.798;2023-01-08T03:30:31;99704.81;;;9.13;100.00
2178;BME280;1095;50.992;6.798;2023-01-08T03:33:00;99696.34;;;9.11;100.00
2178;BME280;1095;50.992;6.798;2023-01-08T03:35:31;99681.41;;;8.96;100.00
2178;BME280;1095;50.992;6.798;2023-01-08T03:38:05;99663.00;;;8.90;100.00
2178;BME280;1095;50.992;6.798;2023-01-08T03:40:47;99667.41;;;8.89;100.00
2178;BME280;1095;50.992;6.798;2023-01-08T03:43:21;99696.50;;;9.09;100.00
2178;BME280;1095;50.992;6.798;2023-01-08T03:46:02;99696.16;;;9.12;100.00
2178;BME280;1095;50.992;6.798;2023-01-08T03:48:37;99671.78;;;8.97;100.00
2178;BME280;1095;50.992;6.798;2023-01-08T03:51:11;99672.22;;;9.01;100.00
2178;BME280;1095;50.992;6.798;2023-01-08T03:53:40;99675.63;;;9.09;100.00
2178;BME280;1095;50.992;6.798;2023-01-08T03:56:11;99688.34;;;9.12;100.00
2178;BME280;1095;50.992;6.798;2023-01-08T03:58:40;99686.06;;;9.09;100.00
2178;BME280;1095;50.992;6.798;2023-01-08T04:01:10;99656.78;;;8.91;100.00
2178;BME280;1095;50.992;6.798;2023-01-08T04:03:38;99684.25;;;9.10;100.00
2178;BME280;1095;50.992;6.798;2023-01-08T04:06:06;99682.16;;;9.05;100.00
2178;BME280;1095;50.992;6.798;2023-01-08T04:08:33;99649.47;;;8.86;100.00
2178;BME280;1095;50.992;6.798;2023-01-08T04:11:04;99682.63;;;9.09;100.00
2178;BME280;1095;50.992;6.798;2023-01-08T04:13:31;99647.81;;;8.93;100.00
2178;BME280;1095;50.992;6.798;2023-01-08T04:16:00;99655.09;;;9.06;100.00
2178;BME280;1095;50.992;6.798;2023-01-08T04:18:26;99636.41;;;8.94;100.00
2178;BME280;1095;50.992;6.798;2023-01-08T04:20:53;99672.69;;;9.12;100.00
2178;BME280;1095;50.992;6.798;2023-01-08T04:23:20;99639.34;;;8.91;100.00
2178;BME280;1095;50.992;6.798;2023-01-08T04:25:47;99649.22;;;9.04;100.00
2178;BME280;1095;50.992;6.798;2023-01-08T04:28:13;99654.78;;;9.01;100.00
2178;BME280;1095;50.992;6.798;2023-01-08T04:30:40;99664.06;;;9.04;100.00
2178;BME280;1095;50.992;6.798;2023-01-08T04:33:08;99629.09;;;8.90;100.00
2178;BME280;1095;50.992;6.798;2023-01-08T04:35:35;99663.91;;;9.05;100.00
2178;BME280;1095;50.992;6.798;2023-01-08T04:38:04;99659.34;;;8.99;100.00
2178;BME280;1095;50.992;6.798;2023-01-08T04:40:32;99636.44;;;8.86;100.00
2178;BME280;1095;50.992;6.798;2023-01-08T04:42:59;99636.44;;;8.86;100.00
2178;BME280;1095;50.992;6.798;2023-01-08T04:45:25;99662.75;;;9.08;100.00
2178;BME280;1095;50.992;6.798;2023-01-08T04:47:56;99628.41;;;8.96;100.00
2178;BME280;1095;50.992;6.798;2023-01-08T04:50:33;99648.38;;;9.12;100.00
2178;BME280;1095;50.992;6.798;2023-01-08T04:55:37;99637.94;;;9.12;100.00
2178;BME280;1095;50.992;6.798;2023-01-08T04:58:06;99632.03;;;9.18;100.00
2178;BME280;1095;50.992;6.798;2023-01-08T05:00:32;99634.94;;;9.23;100.00
2178;BME280;1095;50.992;6.798;2023-01-08T05:02:59;99605.31;;;9.08;99.68
2178;BME280;1095;50.992;6.798;2023-01-08T05:05:26;99628.69;;;9.32;99.15
2178;BME280;1095;50.992;6.798;2023-01-08T05:07:54;99627.38;;;9.36;98.34
2178;BME280;1095;50.992;6.798;2023-01-08T05:10:21;99601.63;;;9.33;97.29
2178;BME280;1095;50.992;6.798;2023-01-08T05:12:49;99599.34;;;9.30;97.48
2178;BME280;1095;50.992;6.798;2023-01-08T05:15:16;99618.25;;;9.32;97.28
2178;BME280;1095;50.992;6.798;2023-01-08T05:17:43;99616.97;;;9.28;97.51
2178;BME280;1095;50.992;6.798;2023-01-08T05:20:10;99605.25;;;9.24;97.31
2178;BME280;1095;50.992;6.798;2023-01-08T05:22:37;99613.09;;;9.24;97.41
2178;BME280;1095;50.992;6.798;2023-01-08T05:25:08;99611.75;;;9.28;97.10
2178;BME280;1095;50.992;6.798;2023-01-08T05:27:35;99616.16;;;9.27;96.76
2178;BME280;1095;50.992;6.798;2023-01-08T05:30:01;99610.47;;;9.24;96.60
2178;BME280;1095;50.992;6.798;2023-01-08T05:32:28;99606.88;;;9.25;96.34
2178;BME280;1095;50.992;6.798;2023-01-08T05:34:54;99599.44;;;9.14;96.18
2178;BME280;1095;50.992;6.798;2023-01-08T05:37:21;99616.72;;;9.15;96.28
2178;BME280;1095;50.992;6.798;2023-01-08T05:39:48;99615.25;;;9.12;96.60
2178;BME280;1095;50.992;6.798;2023-01-08T05:42:16;99612.53;;;9.06;96.46
2178;BME280;1095;50.992;6.798;2023-01-08T05:45:04;99587.53;;;8.80;96.69
2178;BME280;1095;50.992;6.798;2023-01-08T05:47:51;99600.88;;;8.85;97.08
2178;BME280;1095;50.992;6.798;2023-01-08T05:50:27;99604.16;;;8.87;97.14
2178;BME280;1095;50.992;6.798;2023-01-08T05:53:05;99598.63;;;8.82;97.19
2178;BME280;1095;50.992;6.798;2023-01-08T05:55:32;99596.81;;;8.83;97.46
2178;BME280;1095;50.992;6.798;2023-01-08T05:58:05;99610.50;;;8.85;97.61
2178;BME280;1095;50.992;6.798;2023-01-08T06:00:45;99612.47;;;8.83;98.04
2178;BME280;1095;50.992;6.798;2023-01-08T06:03:13;99581.09;;;8.60;97.59
2178;BME280;1095;50.992;6.798;2023-01-08T06:05:40;99607.94;;;8.77;97.76
2178;BME280;1095;50.992;6.798;2023-01-08T06:08:06;99596.41;;;8.63;98.12
2178;BME280;1095;50.992;6.798;2023-01-08T06:10:36;99615.94;;;8.67;98.09
2178;BME280;1095;50.992;6.798;2023-01-08T06:13:07;99624.72;;;8.74;97.91
2178;BME280;1095;50.992;6.798;2023-01-08T06:15:34;99608.59;;;8.71;98.37
2178;BME280;1095;50.992;6.798;2023-01-08T06:18:01;99595.41;;;8.64;97.56
2178;BME280;1095;50.992;6.798;2023-01-08T06:20:28;99609.09;;;8.74;97.58
2178;BME280;1095;50.992;6.798;2023-01-08T06:22:54;99618.19;;;8.78;97.04
2178;BME280;1095;50.992;6.798;2023-01-08T06:25:21;99622.78;;;8.76;97.38
2178;BME280;1095;50.992;6.798;2023-01-08T06:27:49;99621.75;;;8.85;97.04
2178;BME280;1095;50.992;6.798;2023-01-08T06:30:18;99618.34;;;8.85;96.98
2178;BME280;1095;50.992;6.798;2023-01-08T06:32:45;99610.66;;;8.91;96.52
2178;BME280;1095;50.992;6.798;2023-01-08T06:35:11;99610.59;;;8.99;95.83
2178;BME280;1095;50.992;6.798;2023-01-08T06:37:38;99597.13;;;8.88;95.92
2178;BME280;1095;50.992;6.798;2023-01-08T06:40:05;99617.59;;;8.99;95.96
2178;BME280;1095;50.992;6.798;2023-01-08T06:42:32;99631.94;;;9.03;95.87
2178;BME280;1095;50.992;6.798;2023-01-08T06:44:58;99634.03;;;9.08;96.03
2178;BME280;1095;50.992;6.798;2023-01-08T06:47:26;99702.50;;;9.18;95.96
2178;BME280;1095;50.992;6.798;2023-01-08T06:49:54;99670.78;;;8.35;97.01
2178;BME280;1095;50.992;6.798;2023-01-08T06:52:23;99693.88;;;8.13;98.73
2178;BME280;1095;50.992;6.798;2023-01-08T06:54:49;99686.91;;;7.89;100.00
2178;BME280;1095;50.992;6.798;2023-01-08T06:57:16;99699.25;;;7.87;100.00
2178;BME280;1095;50.992;6.798;2023-01-08T06:59:43;99690.47;;;7.88;100.00
2178;BME280;1095;50.992;6.798;2023-01-08T07:02:12;99681.03;;;7.87;100.00
2178;BME280;1095;50.992;6.798;2023-01-08T07:04:40;99679.56;;;7.85;100.00
2178;BME280;1095;50.992;6.798;2023-01-08T07:07:07;99690.31;;;7.82;100.00
2178;BME280;1095;50.992;6.798;2023-01-08T07:09:33;99690.47;;;7.80;100.00
2178;BME280;1095;50.992;6.798;2023-01-08T07:12:00;99696.16;;;7.76;100.00
2178;BME280;1095;50.992;6.798;2023-01-08T07:14:27;99693.38;;;7.77;100.00
2178;BME280;1095;50.992;6.798;2023-01-08T07:16:54;99689.47;;;7.73;100.00
2178;BME280;1095;50.992;6.798;2023-01-08T07:19:24;99690.13;;;7.75;100.00
2178;BME280;1095;50.992;6.798;2023-01-08T07:21:52;99691.25;;;7.73;100.00
2178;BME280;1095;50.992;6.798;2023-01-08T07:24:20;99686.22;;;7.71;100.00
2178;BME280;1095;50.992;6.798;2023-01-08T07:26:47;99671.38;;;7.63;100.00
2178;BME280;1095;50.992;6.798;2023-01-08T07:29:14;99686.72;;;7.75;100.00
2178;BME280;1095;50.992;6.798;2023-01-08T07:31:42;99676.28;;;7.66;100.00
2178;BME280;1095;50.992;6.798;2023-01-08T07:34:11;99657.38;;;7.56;100.00
2178;BME280;1095;50.992;6.798;2023-01-08T07:36:41;99670.41;;;7.64;100.00
2178;BME280;1095;50.992;6.798;2023-01-08T07:39:09;99678.56;;;7.78;100.00
2178;BME280;1095;50.992;6.798;2023-01-08T07:41:36;99645.34;;;7.63;100.00
2178;BME280;1095;50.992;6.798;2023-01-08T07:44:03;99683.47;;;7.81;100.00
2178;BME280;1095;50.992;6.798;2023-01-08T07:46:30;99669.97;;;7.85;100.00
2178;BME280;1095;50.992;6.798;2023-01-08T07:48:56;99672.56;;;7.85;100.00
2178;BME280;1095;50.992;6.798;2023-01-08T07:51:23;99669.47;;;7.82;100.00
2178;BME280;1095;50.992;6.798;2023-01-08T07:53:50;99669.63;;;7.88;100.00
2178;BME280;1095;50.992;6.798;2023-01-08T07:56:23;99672.09;;;7.90;100.00
2178;BME280;1095;50.992;6.798;2023-01-08T07:58:54;99647.31;;;7.78;100.00
2178;BME280;1095;50.992;6.798;2023-01-08T08:01:23;99657.75;;;7.86;100.00
2178;BME280;1095;50.992;6.798;2023-01-08T08:03:53;99664.91;;;7.84;100.00
2178;BME280;1095;50.992;6.798;2023-01-08T08:06:21;99666.88;;;7.90;100.00
2178;BME280;1095;50.992;6.798;2023-01-08T08:08:55;99652.53;;;7.78;100.00
2178;BME280;1095;50.992;6.798;2023-01-08T08:11:41;99639.50;;;7.70;100.00
2178;BME280;1095;50.992;6.798;2023-01-08T08:14:08;99648.78;;;7.72;100.00
2178;BME280;1095;50.992;6.798;2023-01-08T08:16:36;99671.59;;;7.86;100.00
2178;BME280;1095;50.992;6.798;2023-01-08T08:19:03;99675.84;;;7.95;100.00
2178;BME280;1095;50.992;6.798;2023-01-08T08:21:30;99671.59;;;7.94;100.00
2178;BME280;1095;50.992;6.798;2023-01-08T08:23:57;99658.25;;;7.97;100.00
2178;BME280;1095;50.992;6.798;2023-01-08T08:26:23;99654.97;;;8.04;100.00
2178;BME280;1095;50.992;6.798;2023-01-08T08:28:51;99653.84;;;7.98;100.00
2178;BME280;1095;50.992;6.798;2023-01-08T08:31:18;99651.09;;;7.99;100.00
2178;BME280;1095;50.992;6.798;2023-01-08T08:33:44;99642.44;;;7.91;100.00
2178;BME280;1095;50.992;6.798;2023-01-08T08:36:11;99653.84;;;7.90;99.90
2178;BME280;1095;50.992;6.798;2023-01-08T08:38:38;99637.72;;;7.86;100.00
2178;BME280;1095;50.992;6.798;2023-01-08T08:41:05;99631.53;;;7.79;100.00
2178;BME280;1095;50.992;6.798;2023-01-08T08:43:32;99632.34;;;7.72;100.00
2178;BME280;1095;50.992;6.798;2023-01-08T08:46:00;99628.44;;;7.76;100.00
2178;BME280;1095;50.992;6.798;2023-01-08T08:48:27;99622.41;;;7.75;100.00
2178;BME280;1095;50.992;6.798;2023-01-08T08:50:53;99629.75;;;7.80;100.00
2178;BME280;1095;50.992;6.798;2023-01-08T08:53:20;99634.94;;;7.80;99.68
2178;BME280;1095;50.992;6.798;2023-01-08T08:55:46;99628.59;;;7.74;99.36
2178;BME280;1095;50.992;6.798;2023-01-08T08:58:16;99629.91;;;7.70;99.13
2178;BME280;1095;50.992;6.798;2023-01-08T09:00:43;99625.34;;;7.64;98.88
2178;BME280;1095;50.992;6.798;2023-01-08T09:03:12;99623.38;;;7.58;99.25
2178;BME280;1095;50.992;6.798;2023-01-08T09:05:39;99619.13;;;7.57;98.98
2178;BME280;1095;50.992;6.798;2023-01-08T09:08:07;99601.41;;;7.44;99.05
2178;BME280;1095;50.992;6.798;2023-01-08T09:10:35;99609.06;;;7.54;98.69
2178;BME280;1095;50.992;6.798;2023-01-08T09:13:02;99614.44;;;7.52;98.25
2178;BME280;1095;50.992;6.798;2023-01-08T09:15:29;99620.94;;;7.48;98.33
2178;BME280;1095;50.992;6.798;2023-01-08T09:17:56;99624.19;;;7.42;98.48
2178;BME280;1095;50.992;6.798;2023-01-08T09:20:25;99620.59;;;7.43;98.33
2178;BME280;1095;50.992;6.798;2023-01-08T09:22:52;99626.47;;;7.45;98.62
2178;BME280;1095;50.992;6.798;2023-01-08T09:25:19;99626.31;;;7.47;98.35
2178;BME280;1095;50.992;6.798;2023-01-08T09:27:46;99619.97;;;7.49;98.37
2178;BME280;1095;50.992;6.798;2023-01-08T09:30:13;99632.03;;;7.75;97.54
2178;BME280;1095;50.992;6.798;2023-01-08T09:32:39;99634.31;;;7.94;97.50
2178;BME280;1095;50.992;6.798;2023-01-08T09:35:07;99632.97;;;8.14;97.30
2178;BME280;1095;50.992;6.798;2023-01-08T09:37:35;99635.25;;;8.42;97.11
2178;BME280;1095;50.992;6.798;2023-01-08T09:40:02;99639.78;;;8.56;95.94
2178;BME280;1095;50.992;6.798;2023-01-08T09:42:29;99625.06;;;8.71;95.56
2178;BME280;1095;50.992;6.798;2023-01-08T09:44:57;99625.34;;;8.84;94.99
2178;BME280;1095;50.992;6.798;2023-01-08T09:47:28;99613.75;;;8.87;94.16
2178;BME280;1095;50.992;6.798;2023-01-08T09:50:00;99626.41;;;8.98;94.04
2178;BME280;1095;50.992;6.798;2023-01-08T09:52:28;99624.63;;;8.98;93.95
2178;BME280;1095;50.992;6.798;2023-01-08T09:54:58;99624.41;;;9.08;93.56
2178;BME280;1095;50.992;6.798;2023-01-08T09:57:26;99608.78;;;9.00;92.98
2178;BME280;1095;50.992;6.798;2023-01-08T09:59:52;99605.63;;;9.13;92.86
2178;BME280;1095;50.992;6.798;2023-01-08T10:02:20;99605.28;;;9.16;92.78
2178;BME280;1095;50.992;6.798;2023-01-08T10:04:52;99598.16;;;9.10;92.65
2178;BME280;1095;50.992;6.798;2023-01-08T10:07:21;99589.00;;;9.14;92.49
2178;BME280;1095;50.992;6.798;2023-01-08T10:09:49;99602.34;;;9.19;92.14
2178;BME280;1095;50.992;6.798;2023-01-08T10:12:24;99580.66;;;9.18;92.23
2178;BME280;1095;50.992;6.798;2023-01-08T10:14:53;99581.47;;;9.19;93.00
2178;BME280;1095;50.992;6.798;2023-01-08T10:17:25;99577.00;;;9.27;92.58
2178;BME280;1095;50.992;6.798;2023-01-08T10:19:52;99575.91;;;9.45;92.44
2178;BME280;1095;50.992;6.798;2023-01-08T10:22:21;99568.16;;;9.51;92.07
2178;BME280;1095;50.992;6.798;2023-01-08T10:24:49;99563.53;;;9.61;91.68
2178;BME280;1095;50.992;6.798;2023-01-08T10:27:18;99554.75;;;9.54;91.76
2178;BME280;1095;50.992;6.798;2023-01-08T10:29:45;99552.78;;;9.56;92.21
2178;BME280;1095;50.992;6.798;2023-01-08T10:32:14;99545.25;;;9.61;92.31
2178;BME280;1095;50.992;6.798;2023-01-08T10:34:45;99550.06;;;9.73;92.04
2178;BME280;1095;50.992;6.798;2023-01-08T10:37:14;99548.00;;;9.83;91.86
2178;BME280;1095;50.992;6.798;2023-01-08T10:39:44;99552.59;;;9.81;90.68
2178;BME280;1095;50.992;6.798;2023-01-08T10:42:12;99528.84;;;9.90;91.26
2178;BME280;1095;50.992;6.798;2023-01-08T10:44:50;99533.31;;;9.96;90.37
2178;BME280;1095;50.992;6.798;2023-01-08T10:47:18;99527.47;;;10.09;90.64
2178;BME280;1095;50.992;6.798;2023-01-08T10:49:45;99518.28;;;10.13;89.70
2178;BME280;1095;50.992;6.798;2023-01-08T10:52:23;99506.84;;;10.14;88.47
2178;BME280;1095;50.992;6.798;2023-01-08T10:54:51;99502.25;;;10.16;87.93
2178;BME280;1095;50.992;6.798;2023-01-08T10:57:23;99494.16;;;10.26;87.74
2178;BME280;1095;50.992;6.798;2023-01-08T10:59:52;99489.66;;;10.35;87.38
2178;BME280;1095;50.992;6.798;2023-01-08T11:02:27;99493.31;;;10.55;86.37
2178;BME280;1095;50.992;6.798;2023-01-08T11:04:55;99477.50;;;10.63;85.73
2178;BME280;1095;50.992;6.798;2023-01-08T11:07:22;99484.16;;;10.80;85.19
2178;BME280;1095;50.992;6.798;2023-01-08T11:09:50;99484.22;;;10.87;84.57
2178;BME280;1095;50.992;6.798;2023-01-08T11:12:30;99472.31;;;10.84;84.22
2178;BME280;1095;50.992;6.798;2023-01-08T11:14:59;99463.69;;;10.90;83.34
2178;BME280;1095;50.992;6.798;2023-01-08T11:17:26;99470.19;;;10.94;83.60
2178;BME280;1095;50.992;6.798;2023-01-08T11:19:53;99464.44;;;11.06;83.75
2178;BME280;1095;50.992;6.798;2023-01-08T11:22:22;99462.34;;;11.16;83.48
2178;BME280;1095;50.992;6.798;2023-01-08T11:24:50;99454.22;;;11.11;83.15
2178;BME280;1095;50.992;6.798;2023-01-08T11:27:22;99455.09;;;10.96;83.67
2178;BME280;1095;50.992;6.798;2023-01-08T11:29:56;99455.22;;;10.88;83.92
2178;BME280;1095;50.992;6.798;2023-01-08T11:32:36;99449.56;;;10.85;83.13
2178;BME280;1095;50.992;6.798;2023-01-08T11:35:11;99450.59;;;10.90;82.80
2178;BME280;1095;50.992;6.798;2023-01-08T11:37:48;99448.00;;;10.90;82.82
2178;BME280;1095;50.992;6.798;2023-01-08T11:40:16;99443.94;;;10.88;82.61
2178;BME280;1095;50.992;6.798;2023-01-08T11:42:57;99440.28;;;10.82;83.04
2178;BME280;1095;50.992;6.798;2023-01-08T11:45:36;99438.59;;;10.75;83.44
2178;BME280;1095;50.992;6.798;2023-01-08T11:48:30;99425.84;;;10.86;82.82
2178;BME280;1095;50.992;6.798;2023-01-08T11:53:55;99442.00;;;10.96;83.40
2178;BME280;1095;50.992;6.798;2023-01-08T11:56:36;99413.22;;;10.96;83.20
2178;BME280;1095;50.992;6.798;2023-01-08T11:59:16;99420.06;;;11.19;82.53
2178;BME280;1095;50.992;6.798;2023-01-08T12:01:50;99416.44;;;11.20;82.97
2178;BME280;1095;50.992;6.798;2023-01-08T12:04:38;99399.13;;;11.19;81.70
2178;BME280;1095;50.992;6.798;2023-01-08T12:07:14;99400.50;;;11.15;81.05
2178;BME280;1095;50.992;6.798;2023-01-08T12:09:45;99393.41;;;11.09;80.76
2178;BME280;1095;50.992;6.798;2023-01-08T12:12:38;99393.81;;;11.12;80.72
2178;BME280;1095;50.992;6.798;2023-01-08T12:15:12;99390.59;;;11.10;80.77
2178;BME280;1095;50.992;6.798;2023-01-08T12:17:57;99388.66;;;11.19;80.55
2178;BME280;1095;50.992;6.798;2023-01-08T12:20:35;99373.69;;;11.13;79.74
2178;BME280;1095;50.992;6.798;2023-01-08T12:23:11;99380.94;;;11.11;79.41
2178;BME280;1095;50.992;6.798;2023-01-08T12:25:51;99382.41;;;11.20;78.81
2178;BME280;1095;50.992;6.798;2023-01-08T12:28:31;99381.91;;;11.31;78.94
2178;BME280;1095;50.992;6.798;2023-01-08T12:31:16;99369.75;;;11.23;78.26
2178;BME280;1095;50.992;6.798;2023-01-08T12:33:53;99376.31;;;11.13;79.02
2178;BME280;1095;50.992;6.798;2023-01-08T12:36:26;99376.72;;;10.88;80.32
2178;BME280;1095;50.992;6.798;2023-01-08T12:38:54;99383.72;;;10.81;81.55
2178;BME280;1095;50.992;6.798;2023-01-08T12:41:23;99380.22;;;10.74;81.85
2178;BME280;1095;50.992;6.798;2023-01-08T12:43:52;99382.59;;;10.69;82.15
2178;BME280;1095;50.992;6.798;2023-01-08T12:46:23;99374.19;;;10.74;82.83
2178;BME280;1095;50.992;6.798;2023-01-08T12:48:52;99386.38;;;10.88;82.59
2178;BME280;1095;50.992;6.798;2023-01-08T12:51:25;99383.38;;;10.91;82.88
2178;BME280;1095;50.992;6.798;2023-01-08T12:54:03;99386.81;;;10.91;83.02
2178;BME280;1095;50.992;6.798;2023-01-08T12:56:40;99387.88;;;10.76;83.85
2178;BME280;1095;50.992;6.798;2023-01-08T12:59:22;99385.56;;;10.66;84.11
2178;BME280;1095;50.992;6.798;2023-01-08T13:01:57;99386.81;;;10.70;83.71
2178;BME280;1095;50.992;6.798;2023-01-08T13:04:47;99383.00;;;10.94;84.79
2178;BME280;1095;50.992;6.798;2023-01-08T13:07:19;99370.50;;;11.17;84.17
2178;BME280;1095;50.992;6.798;2023-01-08T13:09:54;99366.94;;;11.25;83.05
2178;BME280;1095;50.992;6.798;2023-01-08T13:12:27;99361.50;;;11.26;82.38
2178;BME280;1095;50.992;6.798;2023-01-08T13:14:58;99356.47;;;11.25;82.40
2178;BME280;1095;50.992;6.798;2023-01-08T13:17:26;99343.66;;;11.09;81.85
2178;BME280;1095;50.992;6.798;2023-01-08T13:19:57;99332.81;;;10.84;81.28
2178;BME280;1095;50.992;6.798;2023-01-08T13:22:28;99332.88;;;10.69;80.92
2178;BME280;1095;50.992;6.798;2023-01-08T13:25:26;99324.84;;;10.71;79.21
2178;BME280;1095;50.992;6.798;2023-01-08T13:27:54;99323.28;;;10.76;79.77
2178;BME280;1095;50.992;6.798;2023-01-08T13:30:36;99321.66;;;10.75;78.64
2178;BME280;1095;50.992;6.798;2023-01-08T13:35:44;99312.31;;;10.66;78.02
2178;BME280;1095;50.992;6.798;2023-01-08T13:38:14;99313.94;;;10.67;78.23
2178;BME280;1095;50.992;6.798;2023-01-08T13:40:54;99311.84;;;10.56;77.98
2178;BME280;1095;50.992;6.798;2023-01-08T13:43:23;99312.38;;;10.51;78.58
2178;BME280;1095;50.992;6.798;2023-01-08T13:46:07;99319.63;;;10.49;79.45
2178;BME280;1095;50.992;6.798;2023-01-08T13:48:48;99318.88;;;10.55;78.75
2178;BME280;1095;50.992;6.798;2023-01-08T13:51:40;99307.28;;;10.64;78.94
2178;BME280;1095;50.992;6.798;2023-01-08T13:54:17;99304.72;;;10.71;78.92
2178;BME280;1095;50.992;6.798;2023-01-08T13:56:46;99299.13;;;10.74;78.76
2178;BME280;1095;50.992;6.798;2023-01-08T13:59:26;99295.13;;;10.78;78.37
2178;BME280;1095;50.992;6.798;2023-01-08T14:01:56;99294.13;;;10.79;78.00